sensor_id;sensor_type;location;lat;lon;timestamp;P1;durP1;ratioP1;P2;durP2;ratioP2
5937;SDS011;2994;51.220;4.412;2024-01-30T00:02:22;8.57;;;7.40;;
5937;SDS011;2994;51.220;4.412;2024-01-30T00:04:48;10.87;;;7.40;;
5937;SDS011;2994;51.220;4.412;2024-01-30T00:07:13;9.60;;;6.60;;
5937;SDS011;2994;51.220;4.412;2024-01-30T00:09:39;9.93;;;7.03;;
5937;SDS011;2994;51.220;4.412;2024-01-30T00:12:07;11.00;;;7.73;;
5937;SDS011;2994;51.220;4.412;2024-01-30T00:14:33;9.80;;;7.33;;
5937;SDS011;2994;51.220;4.412;2024-01-30T00:16:58;8.60;;;7.70;;
5937;SDS011;2994;51.220;4.412;2024-01-30T00:19:24;9.33;;;7.90;;
5937;SDS011;2994;51.220;4.412;2024-01-30T00:21:49;7.40;;;6.70;;
5937;SDS011;2994;51.220;4.412;2024-01-30T00:24:15;10.70;;;7.60;;
5937;SDS011;2994;51.220;4.412;2024-01-30T00:26:40;9.53;;;6.57;;
5937;SDS011;2994;51.220;4.412;2024-01-30T00:29:06;7.60;;;6.53;;
5937;SDS011;2994;51.220;4.412;2024-01-30T00:31:31;10.63;;;7.30;;
5937;SDS011;2994;51.220;4.412;2024-01-30T00:33:57;10.33;;;7.20;;
5937;SDS011;2994;51.220;4.412;2024-01-30T00:36:22;8.67;;;7.77;;
5937;SDS011;2994;51.220;4.412;2024-01-30T00:38:48;7.73;;;6.93;;
5937;SDS011;2994;51.220;4.412;2024-01-30T00:41:13;7.77;;;6.50;;
5937;SDS011;2994;51.220;4.412;2024-01-30T00:43:39;8.50;;;7.07;;
5937;SDS011;2994;51.220;4.412;2024-01-30T00:46:05;8.40;;;6.73;;
5937;SDS011;2994;51.220;4.412;2024-01-30T00:48:30;8.77;;;7.33;;
5937;SDS011;2994;51.220;4.412;2024-01-30T00:50:56;8.23;;;7.23;;
5937;SDS011;2994;51.220;4.412;2024-01-30T00:53:21;7.70;;;6.80;;
5937;SDS011;2994;51.220;4.412;2024-01-30T00:55:47;7.43;;;6.73;;
5937;SDS011;2994;51.220;4.412;2024-01-30T00:58:12;9.03;;;7.47;;
5937;SDS011;2994;51.220;4.412;2024-01-30T01:00:38;9.03;;;7.47;;
5937;SDS011;2994;51.220;4.412;2024-01-30T01:03:04;8.10;;;6.90;;
5937;SDS011;2994;51.220;4.412;2024-01-30T01:05:29;9.40;;;7.10;;
5937;SDS011;2994;51.220;4.412;2024-01-30T01:07:55;7.67;;;6.87;;
5937;SDS011;2994;51.220;4.412;2024-01-30T01:10:20;12.07;;;7.93;;
5937;SDS011;2994;51.220;4.412;2024-01-30T01:12:46;8.50;;;7.60;;
5937;SDS011;2994;51.220;4.412;2024-01-30T01:15:13;8.83;;;7.10;;
5937;SDS011;2994;51.220;4.412;2024-01-30T01:17:38;8.47;;;7.60;;
5937;SDS011;2994;51.220;4.412;2024-01-30T01:20:05;7.17;;;6.50;;
5937;SDS011;2994;51.220;4.412;2024-01-30T01:22:31;8.00;;;7.20;;
5937;SDS011;2994;51.220;4.412;2024-01-30T01:24:57;10.17;;;7.80;;
5937;SDS011;2994;51.220;4.412;2024-01-30T01:27:23;8.13;;;6.70;;
5937;SDS011;2994;51.220;4.412;2024-01-30T01:29:48;7.07;;;6.37;;
5937;SDS011;2994;51.220;4.412;2024-01-30T01:32:14;8.07;;;7.27;;
5937;SDS011;2994;51.220;4.412;2024-01-30T01:34:39;9.67;;;7.00;;
5937;SDS011;2994;51.220;4.412;2024-01-30T01:37:05;8.10;;;7.03;;
5937;SDS011;2994;51.220;4.412;2024-01-30T01:39:30;8.10;;;7.30;;
5937;SDS011;2994;51.220;4.412;2024-01-30T01:41:56;7.97;;;6.90;;
5937;SDS011;2994;51.220;4.412;2024-01-30T01:44:21;7.73;;;7.03;;
5937;SDS011;2994;51.220;4.412;2024-01-30T01:46:47;7.87;;;6.90;;
5937;SDS011;2994;51.220;4.412;2024-01-30T01:49:12;9.40;;;7.20;;
5937;SDS011;2994;51.220;4.412;2024-01-30T01:51:39;8.43;;;7.63;;
5937;SDS011;2994;51.220;4.412;2024-01-30T01:54:06;9.10;;;7.57;;
5937;SDS011;2994;51.220;4.412;2024-01-30T01:56:33;9.03;;;7.10;;
5937;SDS011;2994;51.220;4.412;2024-01-30T01:59:06;8.40;;;7.20;;
5937;SDS011;2994;51.220;4.412;2024-01-30T02:01:38;10.17;;;7.60;;
5937;SDS011;2994;51.220;4.412;2024-01-30T02:04:06;9.10;;;7.40;;
5937;SDS011;2994;51.220;4.412;2024-01-30T02:06:32;7.90;;;7.10;;
5937;SDS011;2994;51.220;4.412;2024-01-30T02:08:59;7.83;;;6.70;;
5937;SDS011;2994;51.220;4.412;2024-01-30T02:11:24;7.97;;;7.07;;
5937;SDS011;2994;51.220;4.412;2024-01-30T02:13:50;7.60;;;6.90;;
5937;SDS011;2994;51.220;4.412;2024-01-30T02:16:15;8.53;;;7.53;;
5937;SDS011;2994;51.220;4.412;2024-01-30T02:18:42;8.20;;;7.40;;
5937;SDS011;2994;51.220;4.412;2024-01-30T02:21:10;8.60;;;7.73;;
5937;SDS011;2994;51.220;4.412;2024-01-30T02:23:36;7.80;;;7.03;;
5937;SDS011;2994;51.220;4.412;2024-01-30T02:26:02;7.97;;;7.17;;
5937;SDS011;2994;51.220;4.412;2024-01-30T02:28:28;8.17;;;7.30;;
5937;SDS011;2994;51.220;4.412;2024-01-30T02:30:53;7.87;;;7.10;;
5937;SDS011;2994;51.220;4.412;2024-01-30T02:33:18;11.90;;;6.60;;
5937;SDS011;2994;51.220;4.412;2024-01-30T02:35:44;9.17;;;6.97;;
5937;SDS011;2994;51.220;4.412;2024-01-30T02:38:10;8.30;;;7.50;;
5937;SDS011;2994;51.220;4.412;2024-01-30T02:40:35;7.83;;;7.03;;
5937;SDS011;2994;51.220;4.412;2024-01-30T02:43:01;8.10;;;6.83;;
5937;SDS011;2994;51.220;4.412;2024-01-30T02:45:27;8.43;;;6.63;;
5937;SDS011;2994;51.220;4.412;2024-01-30T02:47:53;10.83;;;7.67;;
5937;SDS011;2994;51.220;4.412;2024-01-30T02:50:18;8.77;;;7.97;;
5937;SDS011;2994;51.220;4.412;2024-01-30T02:52:44;7.80;;;6.97;;
5937;SDS011;2994;51.220;4.412;2024-01-30T02:55:09;9.67;;;7.20;;
5937;SDS011;2994;51.220;4.412;2024-01-30T02:57:35;8.60;;;7.40;;
5937;SDS011;2994;51.220;4.412;2024-01-30T03:00:01;7.67;;;6.90;;
5937;SDS011;2994;51.220;4.412;2024-01-30T03:02:27;7.50;;;6.80;;
5937;SDS011;2994;51.220;4.412;2024-01-30T03:04:53;9.30;;;7.10;;
5937;SDS011;2994;51.220;4.412;2024-01-30T03:07:18;7.90;;;7.03;;
5937;SDS011;2994;51.220;4.412;2024-01-30T03:09:44;7.77;;;7.07;;
5937;SDS011;2994;51.220;4.412;2024-01-30T03:12:09;8.60;;;7.00;;
5937;SDS011;2994;51.220;4.412;2024-01-30T03:14:35;8.77;;;7.40;;
5937;SDS011;2994;51.220;4.412;2024-01-30T03:17:00;8.33;;;7.30;;
5937;SDS011;2994;51.220;4.412;2024-01-30T03:19:26;9.17;;;7.63;;
5937;SDS011;2994;51.220;4.412;2024-01-30T03:21:52;7.83;;;7.00;;
5937;SDS011;2994;51.220;4.412;2024-01-30T03:24:17;8.30;;;6.67;;
5937;SDS011;2994;51.220;4.412;2024-01-30T03:26:43;8.80;;;7.50;;
5937;SDS011;2994;51.220;4.412;2024-01-30T03:29:09;8.20;;;6.60;;
5937;SDS011;2994;51.220;4.412;2024-01-30T03:31:34;7.23;;;6.53;;
5937;SDS011;2994;51.220;4.412;2024-01-30T03:34:00;7.43;;;6.47;;
5937;SDS011;2994;51.220;4.412;2024-01-30T03:36:26;7.53;;;6.13;;
5937;SDS011;2994;51.220;4.412;2024-01-30T03:38:52;8.13;;;7.33;;
5937;SDS011;2994;51.220;4.412;2024-01-30T03:41:17;7.50;;;6.70;;
5937;SDS011;2994;51.220;4.412;2024-01-30T03:43:42;6.80;;;6.20;;
5937;SDS011;2994;51.220;4.412;2024-01-30T03:46:08;8.80;;;5.90;;
5937;SDS011;2994;51.220;4.412;2024-01-30T03:48:33;9.57;;;8.10;;
5937;SDS011;2994;51.220;4.412;2024-01-30T03:50:59;7.53;;;6.47;;
5937;SDS011;2994;51.220;4.412;2024-01-30T03:53:24;7.40;;;6.70;;
5937;SDS011;2994;51.220;4.412;2024-01-30T03:55:50;7.13;;;6.10;;
5937;SDS011;2994;51.220;4.412;2024-01-30T03:58:16;8.63;;;7.13;;
5937;SDS011;2994;51.220;4.412;2024-01-30T04:00:41;8.90;;;6.93;;
5937;SDS011;2994;51.220;4.412;2024-01-30T04:03:06;7.33;;;6.63;;
5937;SDS011;2994;51.220;4.412;2024-01-30T04:05:32;6.93;;;6.27;;
5937;SDS011;2994;51.220;4.412;2024-01-30T04:07:58;6.70;;;6.07;;
5937;SDS011;2994;51.220;4.412;2024-01-30T04:10:24;8.43;;;6.43;;
5937;SDS011;2994;51.220;4.412;2024-01-30T04:12:50;7.57;;;6.57;;
5937;SDS011;2994;51.220;4.412;2024-01-30T04:15:16;8.27;;;7.30;;
5937;SDS011;2994;51.220;4.412;2024-01-30T04:17:42;9.40;;;6.97;;
5937;SDS011;2994;51.220;4.412;2024-01-30T04:20:11;7.53;;;6.70;;
5937;SDS011;2994;51.220;4.412;2024-01-30T04:22:42;7.63;;;6.43;;
5937;SDS011;2994;51.220;4.412;2024-01-30T04:25:08;8.40;;;7.00;;
5937;SDS011;2994;51.220;4.412;2024-01-30T04:27:34;9.20;;;7.00;;
5937;SDS011;2994;51.220;4.412;2024-01-30T04:29:59;9.10;;;7.40;;
5937;SDS011;2994;51.220;4.412;2024-01-30T04:32:24;7.50;;;6.63;;
5937;SDS011;2994;51.220;4.412;2024-01-30T04:34:50;9.80;;;7.27;;
5937;SDS011;2994;51.220;4.412;2024-01-30T04:37:15;7.83;;;7.07;;
5937;SDS011;2994;51.220;4.412;2024-01-30T04:39:41;9.63;;;6.97;;
5937;SDS011;2994;51.220;4.412;2024-01-30T04:42:06;7.93;;;7.13;;
5937;SDS011;2994;51.220;4.412;2024-01-30T04:44:31;7.87;;;6.57;;
5937;SDS011;2994;51.220;4.412;2024-01-30T04:46:57;7.27;;;6.47;;
5937;SDS011;2994;51.220;4.412;2024-01-30T04:49:26;10.20;;;7.00;;
5937;SDS011;2994;51.220;4.412;2024-01-30T04:51:51;8.83;;;7.47;;
5937;SDS011;2994;51.220;4.412;2024-01-30T04:54:17;8.60;;;6.70;;
5937;SDS011;2994;51.220;4.412;2024-01-30T04:56:42;7.50;;;6.67;;
5937;SDS011;2994;51.220;4.412;2024-01-30T04:59:08;8.97;;;7.60;;
5937;SDS011;2994;51.220;4.412;2024-01-30T05:01:33;8.13;;;6.53;;
5937;SDS011;2994;51.220;4.412;2024-01-30T05:03:59;8.70;;;6.30;;
5937;SDS011;2994;51.220;4.412;2024-01-30T05:06:27;8.70;;;6.63;;
5937;SDS011;2994;51.220;4.412;2024-01-30T05:08:53;9.33;;;6.97;;
5937;SDS011;2994;51.220;4.412;2024-01-30T05:11:18;8.10;;;7.30;;
5937;SDS011;2994;51.220;4.412;2024-01-30T05:13:44;10.93;;;7.60;;
5937;SDS011;2994;51.220;4.412;2024-01-30T05:16:09;7.77;;;6.97;;
5937;SDS011;2994;51.220;4.412;2024-01-30T05:18:35;8.30;;;7.50;;
5937;SDS011;2994;51.220;4.412;2024-01-30T05:21:01;9.10;;;6.83;;
5937;SDS011;2994;51.220;4.412;2024-01-30T05:23:27;8.03;;;7.03;;
5937;SDS011;2994;51.220;4.412;2024-01-30T05:25:53;8.37;;;6.97;;
5937;SDS011;2994;51.220;4.412;2024-01-30T05:28:18;8.50;;;7.60;;
5937;SDS011;2994;51.220;4.412;2024-01-30T05:30:44;8.03;;;7.20;;
5937;SDS011;2994;51.220;4.412;2024-01-30T05:33:09;7.53;;;6.60;;
5937;SDS011;2994;51.220;4.412;2024-01-30T05:35:37;9.60;;;6.30;;
5937;SDS011;2994;51.220;4.412;2024-01-30T05:38:02;8.43;;;7.00;;
5937;SDS011;2994;51.220;4.412;2024-01-30T05:40:28;7.83;;;6.90;;
5937;SDS011;2994;51.220;4.412;2024-01-30T05:42:53;8.03;;;7.30;;
5937;SDS011;2994;51.220;4.412;2024-01-30T05:45:19;8.90;;;6.77;;
5937;SDS011;2994;51.220;4.412;2024-01-30T05:47:45;7.50;;;6.70;;
5937;SDS011;2994;51.220;4.412;2024-01-30T05:50:10;7.13;;;6.43;;
5937;SDS011;2994;51.220;4.412;2024-01-30T05:52:36;7.60;;;6.00;;
5937;SDS011;2994;51.220;4.412;2024-01-30T05:55:01;8.30;;;7.00;;
5937;SDS011;2994;51.220;4.412;2024-01-30T05:57:28;7.37;;;6.67;;
5937;SDS011;2994;51.220;4.412;2024-01-30T05:59:53;7.60;;;6.80;;
5937;SDS011;2994;51.220;4.412;2024-01-30T06:02:21;7.40;;;6.67;;
5937;SDS011;2994;51.220;4.412;2024-01-30T06:04:46;7.80;;;6.33;;
5937;SDS011;2994;51.220;4.412;2024-01-30T06:07:12;8.70;;;6.97;;
5937;SDS011;2994;51.220;4.412;2024-01-30T06:09:37;8.03;;;6.83;;
5937;SDS011;2994;51.220;4.412;2024-01-30T06:12:03;12.07;;;7.60;;
5937;SDS011;2994;51.220;4.412;2024-01-30T06:14:30;8.53;;;6.30;;
5937;SDS011;2994;51.220;4.412;2024-01-30T06:16:55;8.43;;;7.53;;
5937;SDS011;2994;51.220;4.412;2024-01-30T06:19:21;7.53;;;6.60;;
5937;SDS011;2994;51.220;4.412;2024-01-30T06:21:46;10.50;;;7.10;;
5937;SDS011;2994;51.220;4.412;2024-01-30T06:24:12;11.53;;;8.10;;
5937;SDS011;2994;51.220;4.412;2024-01-30T06:26:37;7.77;;;6.80;;
5937;SDS011;2994;51.220;4.412;2024-01-30T06:29:03;9.03;;;6.87;;
5937;SDS011;2994;51.220;4.412;2024-01-30T06:31:28;9.13;;;7.10;;
5937;SDS011;2994;51.220;4.412;2024-01-30T06:33:54;8.83;;;7.93;;
5937;SDS011;2994;51.220;4.412;2024-01-30T06:36:19;9.57;;;7.13;;
5937;SDS011;2994;51.220;4.412;2024-01-30T06:38:45;12.60;;;8.07;;
5937;SDS011;2994;51.220;4.412;2024-01-30T06:41:10;8.33;;;6.77;;
5937;SDS011;2994;51.220;4.412;2024-01-30T06:43:38;9.10;;;7.50;;
5937;SDS011;2994;51.220;4.412;2024-01-30T06:46:04;10.70;;;7.97;;
5937;SDS011;2994;51.220;4.412;2024-01-30T06:48:29;7.93;;;7.13;;
5937;SDS011;2994;51.220;4.412;2024-01-30T06:50:57;10.90;;;8.17;;
5937;SDS011;2994;51.220;4.412;2024-01-30T06:53:22;8.27;;;7.10;;
5937;SDS011;2994;51.220;4.412;2024-01-30T06:55:48;8.10;;;7.30;;
5937;SDS011;2994;51.220;4.412;2024-01-30T06:58:13;8.93;;;7.47;;
5937;SDS011;2994;51.220;4.412;2024-01-30T07:00:39;9.10;;;7.07;;
5937;SDS011;2994;51.220;4.412;2024-01-30T07:03:05;12.20;;;9.33;;
5937;SDS011;2994;51.220;4.412;2024-01-30T07:05:31;10.70;;;7.03;;
5937;SDS011;2994;51.220;4.412;2024-01-30T07:07:59;9.20;;;7.40;;
5937;SDS011;2994;51.220;4.412;2024-01-30T07:10:25;7.90;;;7.03;;
5937;SDS011;2994;51.220;4.412;2024-01-30T07:12:53;10.20;;;8.00;;
5937;SDS011;2994;51.220;4.412;2024-01-30T07:15:19;10.60;;;6.70;;
5937;SDS011;2994;51.220;4.412;2024-01-30T07:17:45;11.03;;;7.20;;
5937;SDS011;2994;51.220;4.412;2024-01-30T07:20:11;11.60;;;8.00;;
5937;SDS011;2994;51.220;4.412;2024-01-30T07:22:36;9.33;;;8.10;;
5937;SDS011;2994;51.220;4.412;2024-01-30T07:25:02;12.80;;;7.70;;
5937;SDS011;2994;51.220;4.412;2024-01-30T07:27:27;8.40;;;6.77;;
5937;SDS011;2994;51.220;4.412;2024-01-30T07:29:53;11.17;;;8.20;;
5937;SDS011;2994;51.220;4.412;2024-01-30T07:32:18;10.10;;;8.33;;
5937;SDS011;2994;51.220;4.412;2024-01-30T07:34:44;9.47;;;7.63;;
5937;SDS011;2994;51.220;4.412;2024-01-30T07:37:10;12.00;;;7.70;;
5937;SDS011;2994;51.220;4.412;2024-01-30T07:39:36;8.70;;;6.93;;
5937;SDS011;2994;51.220;4.412;2024-01-30T07:42:02;8.93;;;8.03;;
5937;SDS011;2994;51.220;4.412;2024-01-30T07:44:27;11.73;;;8.20;;
5937;SDS011;2994;51.220;4.412;2024-01-30T07:46:53;9.90;;;7.40;;
5937;SDS011;2994;51.220;4.412;2024-01-30T07:49:19;10.33;;;8.10;;
5937;SDS011;2994;51.220;4.412;2024-01-30T07:51:45;11.33;;;7.90;;
5937;SDS011;2994;51.220;4.412;2024-01-30T07:54:14;9.10;;;7.37;;
5937;SDS011;2994;51.220;4.412;2024-01-30T07:56:39;10.27;;;7.73;;
5937;SDS011;2994;51.220;4.412;2024-01-30T07:59:05;10.60;;;6.83;;
5937;SDS011;2994;51.220;4.412;2024-01-30T08:01:30;8.53;;;7.53;;
5937;SDS011;2994;51.220;4.412;2024-01-30T08:03:56;9.10;;;8.30;;
5937;SDS011;2994;51.220;4.412;2024-01-30T08:06:22;7.57;;;6.87;;
5937;SDS011;2994;51.220;4.412;2024-01-30T08:08:47;10.40;;;7.60;;
5937;SDS011;2994;51.220;4.412;2024-01-30T08:11:12;9.70;;;7.43;;
5937;SDS011;2994;51.220;4.412;2024-01-30T08:13:38;9.90;;;7.17;;
5937;SDS011;2994;51.220;4.412;2024-01-30T08:16:03;7.70;;;7.00;;
5937;SDS011;2994;51.220;4.412;2024-01-30T08:18:29;8.87;;;7.93;;
5937;SDS011;2994;51.220;4.412;2024-01-30T08:20:55;8.60;;;7.40;;
5937;SDS011;2994;51.220;4.412;2024-01-30T08:23:20;9.00;;;6.90;;
5937;SDS011;2994;51.220;4.412;2024-01-30T08:25:46;10.17;;;7.77;;
5937;SDS011;2994;51.220;4.412;2024-01-30T08:28:11;8.33;;;7.10;;
5937;SDS011;2994;51.220;4.412;2024-01-30T08:30:37;8.17;;;6.90;;
5937;SDS011;2994;51.220;4.412;2024-01-30T08:33:04;8.57;;;6.80;;
5937;SDS011;2994;51.220;4.412;2024-01-30T08:35:29;7.27;;;6.57;;
5937;SDS011;2994;51.220;4.412;2024-01-30T08:37:58;9.03;;;7.80;;
5937;SDS011;2994;51.220;4.412;2024-01-30T08:40:24;9.67;;;7.00;;
5937;SDS011;2994;51.220;4.412;2024-01-30T08:42:49;9.60;;;7.40;;
5937;SDS011;2994;51.220;4.412;2024-01-30T08:45:15;8.43;;;7.20;;
5937;SDS011;2994;51.220;4.412;2024-01-30T08:47:40;8.00;;;7.13;;
5937;SDS011;2994;51.220;4.412;2024-01-30T08:50:06;8.30;;;7.47;;
5937;SDS011;2994;51.220;4.412;2024-01-30T08:52:32;8.60;;;7.30;;
5937;SDS011;2994;51.220;4.412;2024-01-30T08:54:59;11.00;;;7.17;;
5937;SDS011;2994;51.220;4.412;2024-01-30T08:57:24;8.83;;;6.07;;
5937;SDS011;2994;51.220;4.412;2024-01-30T08:59:53;8.27;;;7.43;;
5937;SDS011;2994;51.220;4.412;2024-01-30T09:02:19;9.10;;;7.20;;
5937;SDS011;2994;51.220;4.412;2024-01-30T09:04:44;10.33;;;7.60;;
5937;SDS011;2994;51.220;4.412;2024-01-30T09:07:10;8.47;;;7.63;;
5937;SDS011;2994;51.220;4.412;2024-01-30T09:09:37;12.77;;;7.10;;
5937;SDS011;2994;51.220;4.412;2024-01-30T09:12:04;10.27;;;7.70;;
5937;SDS011;2994;51.220;4.412;2024-01-30T09:14:32;7.97;;;7.10;;
5937;SDS011;2994;51.220;4.412;2024-01-30T09:16:57;7.87;;;7.10;;
5937;SDS011;2994;51.220;4.412;2024-01-30T09:19:23;8.87;;;7.90;;
5937;SDS011;2994;51.220;4.412;2024-01-30T09:21:48;8.70;;;7.13;;
5937;SDS011;2994;51.220;4.412;2024-01-30T09:24:14;9.90;;;8.57;;
5937;SDS011;2994;51.220;4.412;2024-01-30T09:26:39;9.37;;;7.70;;
5937;SDS011;2994;51.220;4.412;2024-01-30T09:29:04;9.00;;;8.10;;
5937;SDS011;2994;51.220;4.412;2024-01-30T09:31:30;9.30;;;8.20;;
5937;SDS011;2994;51.220;4.412;2024-01-30T09:33:55;10.07;;;7.90;;
5937;SDS011;2994;51.220;4.412;2024-01-30T09:36:21;11.07;;;7.40;;
5937;SDS011;2994;51.220;4.412;2024-01-30T09:38:47;10.47;;;8.40;;
5937;SDS011;2994;51.220;4.412;2024-01-30T09:41:12;11.40;;;8.47;;
5937;SDS011;2994;51.220;4.412;2024-01-30T09:43:38;10.40;;;8.90;;
5937;SDS011;2994;51.220;4.412;2024-01-30T09:46:08;10.37;;;8.47;;
5937;SDS011;2994;51.220;4.412;2024-01-30T09:48:38;10.63;;;9.50;;
5937;SDS011;2994;51.220;4.412;2024-01-30T09:51:07;9.20;;;8.20;;
5937;SDS011;2994;51.220;4.412;2024-01-30T09:53:33;13.87;;;9.87;;
5937;SDS011;2994;51.220;4.412;2024-01-30T09:55:58;10.53;;;9.10;;
5937;SDS011;2994;51.220;4.412;2024-01-30T09:58:25;10.80;;;9.00;;
5937;SDS011;2994;51.220;4.412;2024-01-30T10:00:51;11.10;;;9.13;;
5937;SDS011;2994;51.220;4.412;2024-01-30T10:03:18;10.53;;;8.57;;
5937;SDS011;2994;51.220;4.412;2024-01-30T10:05:44;10.80;;;9.23;;
5937;SDS011;2994;51.220;4.412;2024-01-30T10:08:20;10.13;;;9.10;;
5937;SDS011;2994;51.220;4.412;2024-01-30T10:10:46;11.00;;;9.30;;
5937;SDS011;2994;51.220;4.412;2024-01-30T10:13:12;12.80;;;9.30;;
5937;SDS011;2994;51.220;4.412;2024-01-30T10:15:37;11.23;;;9.70;;
5937;SDS011;2994;51.220;4.412;2024-01-30T10:18:04;12.17;;;10.17;;
5937;SDS011;2994;51.220;4.412;2024-01-30T10:20:31;16.67;;;10.73;;
5937;SDS011;2994;51.220;4.412;2024-01-30T10:22:57;12.10;;;10.13;;
5937;SDS011;2994;51.220;4.412;2024-01-30T10:25:23;12.23;;;9.00;;
5937;SDS011;2994;51.220;4.412;2024-01-30T10:27:52;12.03;;;9.13;;
5937;SDS011;2994;51.220;4.412;2024-01-30T10:30:23;11.73;;;8.57;;
5937;SDS011;2994;51.220;4.412;2024-01-30T10:32:54;10.23;;;8.47;;
5937;SDS011;2994;51.220;4.412;2024-01-30T10:35:20;9.07;;;7.23;;
5937;SDS011;2994;51.220;4.412;2024-01-30T10:37:48;7.83;;;5.70;;
5937;SDS011;2994;51.220;4.412;2024-01-30T10:40:14;7.77;;;5.90;;
5937;SDS011;2994;51.220;4.412;2024-01-30T10:42:45;6.70;;;5.40;;
5937;SDS011;2994;51.220;4.412;2024-01-30T10:45:21;4.57;;;4.10;;
5937;SDS011;2994;51.220;4.412;2024-01-30T10:47:58;7.33;;;4.73;;
5937;SDS011;2994;51.220;4.412;2024-01-30T10:50:34;6.97;;;3.73;;
5937;SDS011;2994;51.220;4.412;2024-01-30T10:53:03;4.43;;;3.37;;
5937;SDS011;2994;51.220;4.412;2024-01-30T10:55:29;4.60;;;2.90;;
5937;SDS011;2994;51.220;4.412;2024-01-30T10:57:56;4.83;;;3.00;;
5937;SDS011;2994;51.220;4.412;2024-01-30T11:00:22;6.30;;;2.80;;
5937;SDS011;2994;51.220;4.412;2024-01-30T11:02:49;4.13;;;3.00;;
5937;SDS011;2994;51.220;4.412;2024-01-30T11:05:20;4.60;;;2.10;;
5937;SDS011;2994;51.220;4.412;2024-01-30T11:07:54;4.53;;;2.33;;
5937;SDS011;2994;51.220;4.412;2024-01-30T11:10:20;5.20;;;2.00;;
5937;SDS011;2994;51.220;4.412;2024-01-30T11:12:45;3.30;;;2.40;;
5937;SDS011;2994;51.220;4.412;2024-01-30T11:15:18;2.23;;;2.00;;
5937;SDS011;2994;51.220;4.412;2024-01-30T11:17:44;5.40;;;2.30;;
5937;SDS011;2994;51.220;4.412;2024-01-30T11:20:16;6.80;;;2.20;;
5937;SDS011;2994;51.220;4.412;2024-01-30T11:22:51;2.30;;;2.10;;
5937;SDS011;2994;51.220;4.412;2024-01-30T11:25:19;3.40;;;1.90;;
5937;SDS011;2994;51.220;4.412;2024-01-30T11:27:46;3.57;;;3.07;;
5937;SDS011;2994;51.220;4.412;2024-01-30T11:35:38;3.03;;;2.50;;
5937;SDS011;2994;51.220;4.412;2024-01-30T11:38:06;2.60;;;2.27;;
5937;SDS011;2994;51.220;4.412;2024-01-30T11:40:33;3.27;;;2.10;;
5937;SDS011;2994;51.220;4.412;2024-01-30T11:42:59;3.10;;;2.20;;
5937;SDS011;2994;51.220;4.412;2024-01-30T11:45:26;2.87;;;1.77;;
5937;SDS011;2994;51.220;4.412;2024-01-30T11:47:52;2.77;;;1.97;;
5937;SDS011;2994;51.220;4.412;2024-01-30T11:50:18;3.90;;;1.23;;
5937;SDS011;2994;51.220;4.412;2024-01-30T11:52:44;3.17;;;1.30;;
5937;SDS011;2994;51.220;4.412;2024-01-30T11:55:09;2.57;;;1.50;;
5937;SDS011;2994;51.220;4.412;2024-01-30T11:57:35;4.20;;;1.33;;
5937;SDS011;2994;51.220;4.412;2024-01-30T12:00:02;5.40;;;1.50;;
5937;SDS011;2994;51.220;4.412;2024-01-30T12:02:41;2.47;;;1.07;;
5937;SDS011;2994;51.220;4.412;2024-01-30T12:05:08;3.53;;;1.97;;
5937;SDS011;2994;51.220;4.412;2024-01-30T12:07:34;3.73;;;1.47;;
5937;SDS011;2994;51.220;4.412;2024-01-30T12:10:00;4.90;;;1.67;;
5937;SDS011;2994;51.220;4.412;2024-01-30T12:12:26;4.07;;;1.33;;
5937;SDS011;2994;51.220;4.412;2024-01-30T12:14:52;3.20;;;2.27;;
5937;SDS011;2994;51.220;4.412;2024-01-30T12:20:10;2.50;;;1.53;;
5937;SDS011;2994;51.220;4.412;2024-01-30T12:22:41;3.67;;;2.10;;
5937;SDS011;2994;51.220;4.412;2024-01-30T12:25:08;5.03;;;1.93;;
5937;SDS011;2994;51.220;4.412;2024-01-30T12:27:37;2.30;;;1.50;;
5937;SDS011;2994;51.220;4.412;2024-01-30T12:30:09;3.67;;;1.83;;
5937;SDS011;2994;51.220;4.412;2024-01-30T12:32:39;4.90;;;1.60;;
5937;SDS011;2994;51.220;4.412;2024-01-30T12:35:10;3.20;;;1.90;;
5937;SDS011;2994;51.220;4.412;2024-01-30T12:37:37;6.10;;;1.80;;
5937;SDS011;2994;51.220;4.412;2024-01-30T12:40:03;3.87;;;1.43;;
5937;SDS011;2994;51.220;4.412;2024-01-30T12:42:29;4.67;;;1.70;;
5937;SDS011;2994;51.220;4.412;2024-01-30T12:44:56;3.50;;;1.37;;
5937;SDS011;2994;51.220;4.412;2024-01-30T12:47:31;3.77;;;1.50;;
5937;SDS011;2994;51.220;4.412;2024-01-30T12:49:57;2.93;;;2.00;;
5937;SDS011;2994;51.220;4.412;2024-01-30T12:52:23;3.67;;;1.73;;
5937;SDS011;2994;51.220;4.412;2024-01-30T12:54:48;4.17;;;2.10;;
5937;SDS011;2994;51.220;4.412;2024-01-30T12:57:14;3.40;;;1.47;;
5937;SDS011;2994;51.220;4.412;2024-01-30T12:59:41;3.17;;;1.60;;
5937;SDS011;2994;51.220;4.412;2024-01-30T13:02:07;2.80;;;1.80;;
5937;SDS011;2994;51.220;4.412;2024-01-30T13:04:33;4.33;;;1.90;;
5937;SDS011;2994;51.220;4.412;2024-01-30T13:06:59;2.03;;;1.60;;
5937;SDS011;2994;51.220;4.412;2024-01-30T13:09:25;3.73;;;1.80;;
5937;SDS011;2994;51.220;4.412;2024-01-30T13:11:51;4.27;;;2.20;;
5937;SDS011;2994;51.220;4.412;2024-01-30T13:14:16;5.47;;;2.20;;
5937;SDS011;2994;51.220;4.412;2024-01-30T13:16:42;2.83;;;2.00;;
5937;SDS011;2994;51.220;4.412;2024-01-30T13:19:08;3.03;;;1.90;;
5937;SDS011;2994;51.220;4.412;2024-01-30T13:21:34;4.80;;;1.70;;
5937;SDS011;2994;51.220;4.412;2024-01-30T13:23:59;2.00;;;1.70;;
5937;SDS011;2994;51.220;4.412;2024-01-30T13:26:25;5.70;;;2.17;;
5937;SDS011;2994;51.220;4.412;2024-01-30T13:28:50;5.70;;;2.20;;
5937;SDS011;2994;51.220;4.412;2024-01-30T13:31:16;4.60;;;1.53;;
5937;SDS011;2994;51.220;4.412;2024-01-30T13:33:42;6.03;;;1.70;;
5937;SDS011;2994;51.220;4.412;2024-01-30T13:36:08;4.27;;;1.93;;
5937;SDS011;2994;51.220;4.412;2024-01-30T13:38:36;7.90;;;3.47;;
5937;SDS011;2994;51.220;4.412;2024-01-30T13:41:02;4.60;;;2.03;;
5937;SDS011;2994;51.220;4.412;2024-01-30T13:43:28;3.90;;;1.70;;
5937;SDS011;2994;51.220;4.412;2024-01-30T13:45:53;4.33;;;2.10;;
5937;SDS011;2994;51.220;4.412;2024-01-30T13:48:19;4.43;;;2.10;;
5937;SDS011;2994;51.220;4.412;2024-01-30T13:50:45;5.20;;;2.27;;
5937;SDS011;2994;51.220;4.412;2024-01-30T13:53:11;2.53;;;1.30;;
5937;SDS011;2994;51.220;4.412;2024-01-30T13:55:36;3.13;;;1.70;;
5937;SDS011;2994;51.220;4.412;2024-01-30T13:58:02;4.10;;;2.20;;
5937;SDS011;2994;51.220;4.412;2024-01-30T14:00:27;2.57;;;1.60;;
5937;SDS011;2994;51.220;4.412;2024-01-30T14:02:53;3.57;;;1.50;;
5937;SDS011;2994;51.220;4.412;2024-01-30T14:05:20;6.73;;;2.30;;
5937;SDS011;2994;51.220;4.412;2024-01-30T14:07:46;3.90;;;1.83;;
5937;SDS011;2994;51.220;4.412;2024-01-30T14:10:12;3.47;;;1.70;;
5937;SDS011;2994;51.220;4.412;2024-01-30T14:12:37;6.37;;;2.13;;
5937;SDS011;2994;51.220;4.412;2024-01-30T14:15:03;4.33;;;2.43;;
5937;SDS011;2994;51.220;4.412;2024-01-30T14:17:29;4.43;;;1.53;;
5937;SDS011;2994;51.220;4.412;2024-01-30T14:19:54;4.57;;;2.20;;
5937;SDS011;2994;51.220;4.412;2024-01-30T14:22:20;3.30;;;2.00;;
5937;SDS011;2994;51.220;4.412;2024-01-30T14:24:45;2.80;;;1.47;;
5937;SDS011;2994;51.220;4.412;2024-01-30T14:27:11;2.53;;;1.57;;
5937;SDS011;2994;51.220;4.412;2024-01-30T14:29:37;3.17;;;2.10;;
5937;SDS011;2994;51.220;4.412;2024-01-30T14:32:03;2.70;;;1.60;;
5937;SDS011;2994;51.220;4.412;2024-01-30T14:34:29;3.63;;;2.10;;
5937;SDS011;2994;51.220;4.412;2024-01-30T14:36:54;3.60;;;2.17;;
5937;SDS011;2994;51.220;4.412;2024-01-30T14:39:20;2.13;;;1.40;;
5937;SDS011;2994;51.220;4.412;2024-01-30T14:41:45;5.47;;;1.60;;
5937;SDS011;2994;51.220;4.412;2024-01-30T14:44:11;4.77;;;1.77;;
5937;SDS011;2994;51.220;4.412;2024-01-30T14:46:36;3.53;;;2.40;;
5937;SDS011;2994;51.220;4.412;2024-01-30T14:49:02;5.17;;;1.70;;
5937;SDS011;2994;51.220;4.412;2024-01-30T14:51:30;2.33;;;1.33;;
5937;SDS011;2994;51.220;4.412;2024-01-30T14:53:56;5.47;;;2.03;;
5937;SDS011;2994;51.220;4.412;2024-01-30T14:56:22;8.83;;;2.40;;
5937;SDS011;2994;51.220;4.412;2024-01-30T14:58:48;2.47;;;2.27;;
5937;SDS011;2994;51.220;4.412;2024-01-30T15:01:13;5.07;;;2.50;;
5937;SDS011;2994;51.220;4.412;2024-01-30T15:03:39;3.20;;;2.87;;
5937;SDS011;2994;51.220;4.412;2024-01-30T15:06:05;7.10;;;2.97;;
5937;SDS011;2994;51.220;4.412;2024-01-30T15:08:31;7.20;;;3.50;;
5937;SDS011;2994;51.220;4.412;2024-01-30T15:10:56;3.70;;;3.13;;
5937;SDS011;2994;51.220;4.412;2024-01-30T15:13:26;4.73;;;3.53;;
5937;SDS011;2994;51.220;4.412;2024-01-30T15:15:51;6.00;;;3.50;;